sensor_id;sensor_type;location;lat;lon;timestamp;temperature;humidity
32612;DHT22;19030;49.478;8.986;2023-01-08T00:01:27;4.90;99.90
32612;DHT22;19030;49.478;8.986;2023-01-08T00:03:28;4.90;99.90
32612;DHT22;19030;49.478;8.986;2023-01-08T00:05:29;4.90;99.90
32612;DHT22;19030;49.478;8.986;2023-01-08T00:07:29;4.90;99.90
32612;DHT22;19030;49.478;8.986;2023-01-08T00:09:30;4.90;99.90
32612;DHT22;19030;49.478;8.986;2023-01-08T00:11:30;4.90;99.90
32612;DHT22;19030;49.478;8.986;2023-01-08T00:13:31;5.00;99.90
32612;DHT22;19030;49.478;8.986;2023-01-08T00:15:34;4.90;99.90
32612;DHT22;19030;49.478;8.986;2023-01-08T00:17:35;5.00;99.90
32612;DHT22;19030;49.478;8.986;2023-01-08T00:19:36;5.00;99.90
32612;DHT22;19030;49.478;8.986;2023-01-08T00:21:36;5.00;99.90
32612;DHT22;19030;49.478;8.986;2023-01-08T00:23:37;5.00;99.90
32612;DHT22;19030;49.478;8.986;2023-01-08T00:25:38;5.00;99.90
32612;DHT22;19030;49.478;8.986;2023-01-08T00:27:39;5.00;99.90
32612;DHT22;19030;49.478;8.986;2023-01-08T00:29:40;5.00;99.90
32612;DHT22;19030;49.478;8.986;2023-01-08T00:31:40;5.00;99.90
32612;DHT22;19030;49.478;8.986;2023-01-08T00:33:41;4.90;99.90
32612;DHT22;19030;49.478;8.986;2023-01-08T00:35:41;4.90;99.90
32612;DHT22;19030;49.478;8.986;2023-01-08T00:37:42;4.90;99.90
32612;DHT22;19030;49.478;8.986;2023-01-08T00:39:42;4.90;99.90
32612;DHT22;19030;49.478;8.986;2023-01-08T00:41:43;4.80;99.90
32612;DHT22;19030;49.478;8.986;2023-01-08T00:43:45;4.90;99.90
32612;DHT22;19030;49.478;8.986;2023-01-08T00:45:45;4.80;99.90
32612;DHT22;19030;49.478;8.986;2023-01-08T00:47:46;4.80;99.90
32612;DHT22;19030;49.478;8.986;2023-01-08T00:49:46;4.80;99.90
32612;DHT22;19030;49.478;8.986;2023-01-08T00:51:47;4.80;99.90
32612;DHT22;19030;49.478;8.986;2023-01-08T00:53:47;4.80;99.90
32612;DHT22;19030;49.478;8.986;2023-01-08T00:55:48;4.80;99.90
32612;DHT22;19030;49.478;8.986;2023-01-08T00:57:49;4.80;99.90
32612;DHT22;19030;49.478;8.986;2023-01-08T00:59:49;4.90;99.90
32612;DHT22;19030;49.478;8.986;2023-01-08T01:01:50;4.80;99.90
32612;DHT22;19030;49.478;8.986;2023-01-08T01:03:53;4.90;99.90
32612;DHT22;19030;49.478;8.986;2023-01-08T01:06:04;4.90;99.90
32612;DHT22;19030;49.478;8.986;2023-01-08T01:08:05;4.80;99.90
32612;DHT22;19030;49.478;8.986;2023-01-08T01:10:06;4.90;99.90
32612;DHT22;19030;49.478;8.986;2023-01-08T01:12:07;4.90;99.90
32612;DHT22;19030;49.478;8.986;2023-01-08T01:14:08;4.90;99.90
32612;DHT22;19030;49.478;8.986;2023-01-08T01:16:09;4.90;99.90
32612;DHT22;19030;49.478;8.986;2023-01-08T01:18:10;4.90;99.90
32612;DHT22;19030;49.478;8.986;2023-01-08T01:20:13;5.00;99.90
32612;DHT22;19030;49.478;8.986;2023-01-08T01:22:14;5.00;99.90
32612;DHT22;19030;49.478;8.986;2023-01-08T01:24:15;5.00;99.90
32612;DHT22;19030;49.478;8.986;2023-01-08T01:26:17;5.00;99.90
32612;DHT22;19030;49.478;8.986;2023-01-08T01:28:18;5.00;99.90
32612;DHT22;19030;49.478;8.986;2023-01-08T01:30:18;5.00;99.90
32612;DHT22;19030;49.478;8.986;2023-01-08T01:32:19;5.00;99.90
32612;DHT22;19030;49.478;8.986;2023-01-08T01:34:19;5.00;99.90
32612;DHT22;19030;49.478;8.986;2023-01-08T01:36:22;4.90;99.90
32612;DHT22;19030;49.478;8.986;2023-01-08T01:38:23;4.90;99.90
32612;DHT22;19030;49.478;8.986;2023-01-08T01:40:23;5.00;99.90
32612;DHT22;19030;49.478;8.986;2023-01-08T01:42:24;4.90;99.90
32612;DHT22;19030;49.478;8.986;2023-01-08T01:44:44;4.90;99.90
32612;DHT22;19030;49.478;8.986;2023-01-08T01:46:45;4.90;99.90
32612;DHT22;19030;49.478;8.986;2023-01-08T01:48:50;4.90;99.90
32612;DHT22;19030;49.478;8.986;2023-01-08T01:50:52;5.00;99.90
32612;DHT22;19030;49.478;8.986;2023-01-08T01:53:04;4.90;99.90
32612;DHT22;19030;49.478;8.986;2023-01-08T01:55:07;4.90;99.90
32612;DHT22;19030;49.478;8.986;2023-01-08T01:57:09;5.00;99.90
32612;DHT22;19030;49.478;8.986;2023-01-08T01:59:11;4.90;99.90
32612;DHT22;19030;49.478;8.986;2023-01-08T02:01:12;5.00;99.90
32612;DHT22;19030;49.478;8.986;2023-01-08T02:03:14;5.00;99.90
32612;DHT22;19030;49.478;8.986;2023-01-08T02:05:15;5.00;99.90
32612;DHT22;19030;49.478;8.986;2023-01-08T02:07:27;5.00;99.90
32612;DHT22;19030;49.478;8.986;2023-01-08T02:14:38;5.00;99.90
32612;DHT22;19030;49.478;8.986;2023-01-08T02:16:55;5.00;99.90
32612;DHT22;19030;49.478;8.986;2023-01-08T02:19:02;5.00;99.90
32612;DHT22;19030;49.478;8.986;2023-01-08T02:21:11;5.00;99.90
32612;DHT22;19030;49.478;8.986;2023-01-08T02:25:53;5.10;99.90
32612;DHT22;19030;49.478;8.986;2023-01-08T02:27:56;5.10;99.90
32612;DHT22;19030;49.478;8.986;2023-01-08T02:29:59;5.10;99.90
32612;DHT22;19030;49.478;8.986;2023-01-08T02:32:01;5.10;99.90
32612;DHT22;19030;49.478;8.986;2023-01-08T02:34:01;5.10;99.90
32612;DHT22;19030;49.478;8.986;2023-01-08T02:38:25;5.10;99.90
32612;DHT22;19030;49.478;8.986;2023-01-08T02:40:37;5.10;99.90
32612;DHT22;19030;49.478;8.986;2023-01-08T02:43:00;5.10;99.90
32612;DHT22;19030;49.478;8.986;2023-01-08T02:45:20;5.10;99.90
32612;DHT22;19030;49.478;8.986;2023-01-08T02:47:26;5.10;99.90
32612;DHT22;19030;49.478;8.986;2023-01-08T02:49:31;5.10;99.90
32612;DHT22;19030;49.478;8.986;2023-01-08T02:51:38;5.00;99.90
32612;DHT22;19030;49.478;8.986;2023-01-08T02:53:43;5.00;99.90
32612;DHT22;19030;49.478;8.986;2023-01-08T02:55:50;5.00;99.90
32612;DHT22;19030;49.478;8.986;2023-01-08T02:57:52;5.00;99.90
32612;DHT22;19030;49.478;8.986;2023-01-08T02:59:53;5.00;99.90
32612;DHT22;19030;49.478;8.986;2023-01-08T03:01:55;5.00;99.90
32612;DHT22;19030;49.478;8.986;2023-01-08T03:03:59;5.10;99.90
32612;DHT22;19030;49.478;8.986;2023-01-08T03:06:08;5.10;99.90
32612;DHT22;19030;49.478;8.986;2023-01-08T03:08:10;5.10;99.90
32612;DHT22;19030;49.478;8.986;2023-01-08T03:10:11;5.10;99.90
32612;DHT22;19030;49.478;8.986;2023-01-08T03:14:22;5.20;99.90
32612;DHT22;19030;49.478;8.986;2023-01-08T03:18:38;5.20;99.90
32612;DHT22;19030;49.478;8.986;2023-01-08T03:20:41;5.20;99.90
32612;DHT22;19030;49.478;8.986;2023-01-08T03:22:45;5.20;99.90
32612;DHT22;19030;49.478;8.986;2023-01-08T03:24:49;5.30;99.90
32612;DHT22;19030;49.478;8.986;2023-01-08T03:26:52;5.30;99.90
32612;DHT22;19030;49.478;8.986;2023-01-08T03:28:55;5.30;99.90
32612;DHT22;19030;49.478;8.986;2023-01-08T03:30:57;5.30;99.90
32612;DHT22;19030;49.478;8.986;2023-01-08T03:32:59;5.30;99.90
32612;DHT22;19030;49.478;8.986;2023-01-08T03:35:01;5.40;99.90
32612;DHT22;19030;49.478;8.986;2023-01-08T03:37:07;5.40;99.90
32612;DHT22;19030;49.478;8.986;2023-01-08T03:39:25;5.30;99.90
32612;DHT22;19030;49.478;8.986;2023-01-08T03:41:30;5.30;99.90
32612;DHT22;19030;49.478;8.986;2023-01-08T03:43:32;5.30;99.90
32612;DHT22;19030;49.478;8.986;2023-01-08T03:45:33;5.30;99.90
32612;DHT22;19030;49.478;8.986;2023-01-08T03:47:37;5.30;99.90
32612;DHT22;19030;49.478;8.986;2023-01-08T03:49:40;5.30;99.90
32612;DHT22;19030;49.478;8.986;2023-01-08T03:51:44;5.40;99.90
32612;DHT22;19030;49.478;8.986;2023-01-08T03:53:44;5.40;99.90
32612;DHT22;19030;49.478;8.986;2023-01-08T03:55:46;5.40;99.90
32612;DHT22;19030;49.478;8.986;2023-01-08T03:57:47;5.40;99.90
32612;DHT22;19030;49.478;8.986;2023-01-08T03:59:47;5.40;99.90
32612;DHT22;19030;49.478;8.986;2023-01-08T04:01:48;5.40;99.90
32612;DHT22;19030;49.478;8.986;2023-01-08T04:03:49;5.40;99.90
32612;DHT22;19030;49.478;8.986;2023-01-08T04:05:50;5.40;99.90
32612;DHT22;19030;49.478;8.986;2023-01-08T04:07:54;5.40;99.90
32612;DHT22;19030;49.478;8.986;2023-01-08T04:09:54;5.40;99.90
32612;DHT22;19030;49.478;8.986;2023-01-08T04:11:55;5.50;99.90
32612;DHT22;19030;49.478;8.986;2023-01-08T04:13:55;5.50;99.90
32612;DHT22;19030;49.478;8.986;2023-01-08T04:15:56;5.50;99.90
32612;DHT22;19030;49.478;8.986;2023-01-08T04:17:57;5.50;99.90
32612;DHT22;19030;49.478;8.986;2023-01-08T04:19:57;5.50;99.90
32612;DHT22;19030;49.478;8.986;2023-01-08T04:21:58;5.50;99.90
32612;DHT22;19030;49.478;8.986;2023-01-08T04:23:58;5.50;99.90
32612;DHT22;19030;49.478;8.986;2023-01-08T04:26:03;5.50;99.90
32612;DHT22;19030;49.478;8.986;2023-01-08T04:28:04;5.50;99.90
32612;DHT22;19030;49.478;8.986;2023-01-08T04:30:05;5.60;99.90
32612;DHT22;19030;49.478;8.986;2023-01-08T04:32:06;5.60;99.90
32612;DHT22;19030;49.478;8.986;2023-01-08T04:34:06;5.60;99.90
32612;DHT22;19030;49.478;8.986;2023-01-08T04:36:07;5.70;99.90
32612;DHT22;19030;49.478;8.986;2023-01-08T04:38:07;5.70;99.90
32612;DHT22;19030;49.478;8.986;2023-01-08T04:40:08;5.70;99.90
32612;DHT22;19030;49.478;8.986;2023-01-08T04:42:09;5.70;99.90
32612;DHT22;19030;49.478;8.986;2023-01-08T04:44:10;5.60;99.90
32612;DHT22;19030;49.478;8.986;2023-01-08T04:46:10;5.60;99.90
32612;DHT22;19030;49.478;8.986;2023-01-08T04:48:11;5.60;99.90
32612;DHT22;19030;49.478;8.986;2023-01-08T04:50:11;5.60;99.90
32612;DHT22;19030;49.478;8.986;2023-01-08T04:52:12;5.60;99.90
32612;DHT22;19030;49.478;8.986;2023-01-08T04:54:13;5.60;99.90
32612;DHT22;19030;49.478;8.986;2023-01-08T04:56:13;5.60;99.90
32612;DHT22;19030;49.478;8.986;2023-01-08T04:58:14;5.60;99.90
32612;DHT22;19030;49.478;8.986;2023-01-08T05:00:15;5.60;99.90
32612;DHT22;19030;49.478;8.986;2023-01-08T05:02:15;5.60;99.90
32612;DHT22;19030;49.478;8.986;2023-01-08T05:04:16;5.60;99.90
32612;DHT22;19030;49.478;8.986;2023-01-08T05:06:16;5.60;99.90
32612;DHT22;19030;49.478;8.986;2023-01-08T05:08:17;5.60;99.90
32612;DHT22;19030;49.478;8.986;2023-01-08T05:10:17;5.60;99.90
32612;DHT22;19030;49.478;8.986;2023-01-08T05:12:18;5.60;99.90
32612;DHT22;19030;49.478;8.986;2023-01-08T05:14:19;5.60;99.90
32612;DHT22;19030;49.478;8.986;2023-01-08T05:16:20;5.60;99.90
32612;DHT22;19030;49.478;8.986;2023-01-08T05:18:20;5.60;99.90
32612;DHT22;19030;49.478;8.986;2023-01-08T05:20:21;5.60;99.90
32612;DHT22;19030;49.478;8.986;2023-01-08T05:22:21;5.60;99.90
32612;DHT22;19030;49.478;8.986;2023-01-08T05:24:22;5.60;99.90
32612;DHT22;19030;49.478;8.986;2023-01-08T05:26:23;5.60;99.90
32612;DHT22;19030;49.478;8.986;2023-01-08T05:28:24;5.70;99.90
32612;DHT22;19030;49.478;8.986;2023-01-08T05:30:25;5.70;99.90
32612;DHT22;19030;49.478;8.986;2023-01-08T05:32:25;5.70;99.90
32612;DHT22;19030;49.478;8.986;2023-01-08T05:34:26;5.70;99.90
32612;DHT22;19030;49.478;8.986;2023-01-08T05:36:26;5.60;99.90
32612;DHT22;19030;49.478;8.986;2023-01-08T05:38:27;5.60;99.90
32612;DHT22;19030;49.478;8.986;2023-01-08T05:40:27;5.60;99.90
32612;DHT22;19030;49.478;8.986;2023-01-08T05:42:28;5.70;99.90
32612;DHT22;19030;49.478;8.986;2023-01-08T05:44:29;5.70;99.90
32612;DHT22;19030;49.478;8.986;2023-01-08T05:46:29;5.70;99.90
32612;DHT22;19030;49.478;8.986;2023-01-08T05:48:32;5.70;99.90
32612;DHT22;19030;49.478;8.986;2023-01-08T05:50:34;5.60;99.90
32612;DHT22;19030;49.478;8.986;2023-01-08T05:52:35;5.60;99.90
32612;DHT22;19030;49.478;8.986;2023-01-08T05:54:35;5.60;99.90
32612;DHT22;19030;49.478;8.986;2023-01-08T05:56:36;5.60;99.90
32612;DHT22;19030;49.478;8.986;2023-01-08T05:58:37;5.60;99.90
32612;DHT22;19030;49.478;8.986;2023-01-08T06:00:37;5.70;99.90
32612;DHT22;19030;49.478;8.986;2023-01-08T06:02:38;5.70;99.90
32612;DHT22;19030;49.478;8.986;2023-01-08T06:04:39;5.70;99.90
32612;DHT22;19030;49.478;8.986;2023-01-08T06:06:39;5.70;99.90
32612;DHT22;19030;49.478;8.986;2023-01-08T06:08:40;5.70;99.90
32612;DHT22;19030;49.478;8.986;2023-01-08T06:10:40;5.80;99.90
32612;DHT22;19030;49.478;8.986;2023-01-08T06:12:41;5.80;99.90
32612;DHT22;19030;49.478;8.986;2023-01-08T06:14:42;5.80;99.90
32612;DHT22;19030;49.478;8.986;2023-01-08T06:16:42;5.80;99.90
32612;DHT22;19030;49.478;8.986;2023-01-08T06:18:43;5.80;99.90
32612;DHT22;19030;49.478;8.986;2023-01-08T06:20:43;5.80;99.90
32612;DHT22;19030;49.478;8.986;2023-01-08T06:22:44;5.70;99.90
32612;DHT22;19030;49.478;8.986;2023-01-08T06:24:44;5.70;99.90
32612;DHT22;19030;49.478;8.986;2023-01-08T06:26:45;5.80;99.90
32612;DHT22;19030;49.478;8.986;2023-01-08T06:28:45;5.80;99.90
32612;DHT22;19030;49.478;8.986;2023-01-08T06:30:46;5.90;99.90
32612;DHT22;19030;49.478;8.986;2023-01-08T06:32:47;5.90;99.90
32612;DHT22;19030;49.478;8.986;2023-01-08T06:34:47;6.00;99.90
32612;DHT22;19030;49.478;8.986;2023-01-08T06:36:48;5.90;99.90
32612;DHT22;19030;49.478;8.986;2023-01-08T06:38:50;5.90;99.90
32612;DHT22;19030;49.478;8.986;2023-01-08T06:40:51;5.90;99.90
32612;DHT22;19030;49.478;8.986;2023-01-08T06:42:51;5.90;99.90
32612;DHT22;19030;49.478;8.986;2023-01-08T06:44:52;5.90;99.90
32612;DHT22;19030;49.478;8.986;2023-01-08T06:46:52;5.80;99.90
32612;DHT22;19030;49.478;8.986;2023-01-08T06:48:53;5.80;99.90
32612;DHT22;19030;49.478;8.986;2023-01-08T06:50:53;5.80;99.90
32612;DHT22;19030;49.478;8.986;2023-01-08T06:52:54;5.80;99.90
32612;DHT22;19030;49.478;8.986;2023-01-08T06:54:55;5.80;99.90
32612;DHT22;19030;49.478;8.986;2023-01-08T06:56:56;5.90;99.90
32612;DHT22;19030;49.478;8.986;2023-01-08T06:58:57;5.80;99.90
32612;DHT22;19030;49.478;8.986;2023-01-08T07:00:58;5.80;99.90
32612;DHT22;19030;49.478;8.986;2023-01-08T07:02:59;5.90;99.90
32612;DHT22;19030;49.478;8.986;2023-01-08T07:04:59;5.90;99.90
32612;DHT22;19030;49.478;8.986;2023-01-08T07:07:00;5.90;99.90
32612;DHT22;19030;49.478;8.986;2023-01-08T07:09:00;5.90;99.90
32612;DHT22;19030;49.478;8.986;2023-01-08T07:11:02;5.90;99.90
32612;DHT22;19030;49.478;8.986;2023-01-08T07:13:06;5.90;99.90
32612;DHT22;19030;49.478;8.986;2023-01-08T07:15:09;5.90;99.90
32612;DHT22;19030;49.478;8.986;2023-01-08T07:17:10;5.90;99.90
32612;DHT22;19030;49.478;8.986;2023-01-08T07:19:10;5.90;99.90
32612;DHT22;19030;49.478;8.986;2023-01-08T07:21:11;5.90;99.90
32612;DHT22;19030;49.478;8.986;2023-01-08T07:23:12;5.90;99.90
32612;DHT22;19030;49.478;8.986;2023-01-08T07:25:12;5.90;99.90
32612;DHT22;19030;49.478;8.986;2023-01-08T07:27:13;5.90;99.90
32612;DHT22;19030;49.478;8.986;2023-01-08T07:29:13;5.90;99.90
32612;DHT22;19030;49.478;8.986;2023-01-08T07:31:14;6.00;99.90
32612;DHT22;19030;49.478;8.986;2023-01-08T07:33:14;6.00;99.90
32612;DHT22;19030;49.478;8.986;2023-01-08T07:35:15;6.00;99.90
32612;DHT22;19030;49.478;8.986;2023-01-08T07:37:15;6.00;99.90
32612;DHT22;19030;49.478;8.986;2023-01-08T07:39:16;6.00;99.90
32612;DHT22;19030;49.478;8.986;2023-01-08T07:41:17;6.00;99.90
32612;DHT22;19030;49.478;8.986;2023-01-08T07:43:17;6.10;99.90
32612;DHT22;19030;49.478;8.986;2023-01-08T07:45:18;6.10;99.90
32612;DHT22;19030;49.478;8.986;2023-01-08T07:47:18;6.20;99.90
32612;DHT22;19030;49.478;8.986;2023-01-08T07:49:19;6.20;99.90
32612;DHT22;19030;49.478;8.986;2023-01-08T07:51:19;6.30;99.90
32612;DHT22;19030;49.478;8.986;2023-01-08T07:53:20;6.30;99.90
32612;DHT22;19030;49.478;8.986;2023-01-08T07:55:21;6.40;99.90
32612;DHT22;19030;49.478;8.986;2023-01-08T07:57:21;6.50;99.90
32612;DHT22;19030;49.478;8.986;2023-01-08T07:59:22;6.50;99.90
32612;DHT22;19030;49.478;8.986;2023-01-08T08:01:22;6.60;99.90
32612;DHT22;19030;49.478;8.986;2023-01-08T08:03:25;6.70;99.90
32612;DHT22;19030;49.478;8.986;2023-01-08T08:05:26;6.70;99.90
32612;DHT22;19030;49.478;8.986;2023-01-08T08:07:30;6.70;99.90
32612;DHT22;19030;49.478;8.986;2023-01-08T08:09:30;6.80;99.90
32612;DHT22;19030;49.478;8.986;2023-01-08T08:11:31;6.80;99.90
32612;DHT22;19030;49.478;8.986;2023-01-08T08:13:31;6.80;99.90
32612;DHT22;19030;49.478;8.986;2023-01-08T08:15:33;6.80;99.90
32612;DHT22;19030;49.478;8.986;2023-01-08T08:17:34;6.80;99.90
32612;DHT22;19030;49.478;8.986;2023-01-08T08:19:34;6.80;99.90
32612;DHT22;19030;49.478;8.986;2023-01-08T08:21:35;6.80;99.90
32612;DHT22;19030;49.478;8.986;2023-01-08T08:23:35;6.90;99.90
32612;DHT22;19030;49.478;8.986;2023-01-08T08:25:36;6.90;99.90
32612;DHT22;19030;49.478;8.986;2023-01-08T08:27:37;6.90;99.90
32612;DHT22;19030;49.478;8.986;2023-01-08T08:29:37;6.90;99.90
32612;DHT22;19030;49.478;8.986;2023-01-08T08:31:38;6.90;99.90
32612;DHT22;19030;49.478;8.986;2023-01-08T08:33:41;6.90;99.90
32612;DHT22;19030;49.478;8.986;2023-01-08T08:35:48;6.90;99.90
32612;DHT22;19030;49.478;8.986;2023-01-08T08:37:49;6.90;99.90
32612;DHT22;19030;49.478;8.986;2023-01-08T08:39:50;6.90;99.90
32612;DHT22;19030;49.478;8.986;2023-01-08T08:41:51;6.90;99.90
32612;DHT22;19030;49.478;8.986;2023-01-08T08:43:51;6.90;99.90
32612;DHT22;19030;49.478;8.986;2023-01-08T08:45:54;6.90;99.90
32612;DHT22;19030;49.478;8.986;2023-01-08T08:47:55;7.00;99.90
32612;DHT22;19030;49.478;8.986;2023-01-08T08:49:56;7.00;99.90
32612;DHT22;19030;49.478;8.986;2023-01-08T08:51:57;7.00;99.90
32612;DHT22;19030;49.478;8.986;2023-01-08T08:53:58;7.00;99.90
32612;DHT22;19030;49.478;8.986;2023-01-08T08:55:58;7.10;99.90
32612;DHT22;19030;49.478;8.986;2023-01-08T08:58:07;7.10;99.90
32612;DHT22;19030;49.478;8.986;2023-01-08T09:00:10;7.10;99.90
32612;DHT22;19030;49.478;8.986;2023-01-08T09:02:11;7.10;99.90
32612;DHT22;19030;49.478;8.986;2023-01-08T09:04:12;7.10;99.90
32612;DHT22;19030;49.478;8.986;2023-01-08T09:06:13;7.10;99.90
32612;DHT22;19030;49.478;8.986;2023-01-08T09:08:13;7.00;99.90
32612;DHT22;19030;49.478;8.986;2023-01-08T09:10:14;7.10;99.90
32612;DHT22;19030;49.478;8.986;2023-01-08T09:12:15;7.10;99.90
32612;DHT22;19030;49.478;8.986;2023-01-08T09:14:15;7.10;99.90
32612;DHT22;19030;49.478;8.986;2023-01-08T09:16:16;7.10;99.90
32612;DHT22;19030;49.478;8.986;2023-01-08T09:18:16;7.10;99.90
32612;DHT22;19030;49.478;8.986;2023-01-08T09:20:17;7.10;99.90
32612;DHT22;19030;49.478;8.986;2023-01-08T09:22:18;7.10;99.90
32612;DHT22;19030;49.478;8.986;2023-01-08T09:24:18;7.10;99.90
32612;DHT22;19030;49.478;8.986;2023-01-08T09:26:19;7.10;99.90
32612;DHT22;19030;49.478;8.986;2023-01-08T09:28:20;7.20;99.90
32612;DHT22;19030;49.478;8.986;2023-01-08T09:30:20;7.20;99.90
32612;DHT22;19030;49.478;8.986;2023-01-08T09:32:21;7.20;99.90
32612;DHT22;19030;49.478;8.986;2023-01-08T09:34:21;7.20;99.90
32612;DHT22;19030;49.478;8.986;2023-01-08T09:36:22;7.30;99.90
32612;DHT22;19030;49.478;8.986;2023-01-08T09:38:22;7.30;99.90
32612;DHT22;19030;49.478;8.986;2023-01-08T09:40:27;7.30;99.90
32612;DHT22;19030;49.478;8.986;2023-01-08T09:42:30;7.30;99.90
32612;DHT22;19030;49.478;8.986;2023-01-08T09:44:37;7.40;99.90
32612;DHT22;19030;49.478;8.986;2023-01-08T09:46:40;7.30;99.90
32612;DHT22;19030;49.478;8.986;2023-01-08T09:48:41;7.40;99.90
32612;DHT22;19030;49.478;8.986;2023-01-08T09:50:42;7.40;99.90
32612;DHT22;19030;49.478;8.986;2023-01-08T09:52:43;7.40;99.90
32612;DHT22;19030;49.478;8.986;2023-01-08T09:54:44;7.50;99.90
32612;DHT22;19030;49.478;8.986;2023-01-08T09:56:44;7.50;99.90
32612;DHT22;19030;49.478;8.986;2023-01-08T09:58:48;7.50;99.90
32612;DHT22;19030;49.478;8.986;2023-01-08T10:00:50;7.60;99.90
32612;DHT22;19030;49.478;8.986;2023-01-08T10:02:52;7.60;99.90
32612;DHT22;19030;49.478;8.986;2023-01-08T10:04:55;7.50;99.90
32612;DHT22;19030;49.478;8.986;2023-01-08T10:07:04;7.60;99.90
32612;DHT22;19030;49.478;8.986;2023-01-08T10:09:06;7.60;99.90
32612;DHT22;19030;49.478;8.986;2023-01-08T10:11:12;7.60;99.90
32612;DHT22;19030;49.478;8.986;2023-01-08T10:13:15;7.60;99.90
32612;DHT22;19030;49.478;8.986;2023-01-08T10:15:17;7.70;99.90
32612;DHT22;19030;49.478;8.986;2023-01-08T10:17:26;7.80;99.90
32612;DHT22;19030;49.478;8.986;2023-01-08T10:19:27;7.80;99.90
32612;DHT22;19030;49.478;8.986;2023-01-08T10:21:30;7.80;99.90
32612;DHT22;19030;49.478;8.986;2023-01-08T10:23:32;7.90;99.90
32612;DHT22;19030;49.478;8.986;2023-01-08T10:25:32;8.00;99.90
32612;DHT22;19030;49.478;8.986;2023-01-08T10:27:44;8.00;99.90
32612;DHT22;19030;49.478;8.986;2023-01-08T10:29:45;8.10;99.90
32612;DHT22;19030;49.478;8.986;2023-01-08T10:31:54;8.20;99.90
32612;DHT22;19030;49.478;8.986;2023-01-08T10:34:07;8.20;99.90
32612;DHT22;19030;49.478;8.986;2023-01-08T10:36:12;8.20;99.90
32612;DHT22;19030;49.478;8.986;2023-01-08T10:38:29;8.30;99.90
32612;DHT22;19030;49.478;8.986;2023-01-08T10:40:38;8.20;99.90
32612;DHT22;19030;49.478;8.986;2023-01-08T10:42:41;8.30;99.90
32612;DHT22;19030;49.478;8.986;2023-01-08T10:46:55;8.20;99.90
32612;DHT22;19030;49.478;8.986;2023-01-08T10:48:59;8.20;99.90
32612;DHT22;19030;49.478;8.986;2023-01-08T10:51:14;8.20;99.90
32612;DHT22;19030;49.478;8.986;2023-01-08T10:53:23;8.20;99.90
32612;DHT22;19030;49.478;8.986;2023-01-08T10:55:27;8.20;99.90
32612;DHT22;19030;49.478;8.986;2023-01-08T10:57:29;8.20;99.90
32612;DHT22;19030;49.478;8.986;2023-01-08T10:59:30;8.30;99.90
32612;DHT22;19030;49.478;8.986;2023-01-08T11:01:31;8.30;99.90
32612;DHT22;19030;49.478;8.986;2023-01-08T11:03:32;8.40;99.90
32612;DHT22;19030;49.478;8.986;2023-01-08T11:05:35;8.40;99.90
32612;DHT22;19030;49.478;8.986;2023-01-08T11:07:36;8.50;99.90
32612;DHT22;19030;49.478;8.986;2023-01-08T11:09:45;8.50;99.90
32612;DHT22;19030;49.478;8.986;2023-01-08T11:11:47;8.50;99.90
32612;DHT22;19030;49.478;8.986;2023-01-08T11:13:56;8.50;99.90
32612;DHT22;19030;49.478;8.986;2023-01-08T11:18:06;8.60;99.90
32612;DHT22;19030;49.478;8.986;2023-01-08T11:20:43;8.60;99.90
32612;DHT22;19030;49.478;8.986;2023-01-08T11:22:44;8.60;99.90
32612;DHT22;19030;49.478;8.986;2023-01-08T11:24:45;8.60;99.90
32612;DHT22;19030;49.478;8.986;2023-01-08T11:26:56;8.60;99.90
32612;DHT22;19030;49.478;8.986;2023-01-08T11:29:10;8.70;99.90
32612;DHT22;19030;49.478;8.986;2023-01-08T11:31:38;8.80;99.90
32612;DHT22;19030;49.478;8.986;2023-01-08T11:33:38;8.80;99.90
32612;DHT22;19030;49.478;8.986;2023-01-08T11:35:44;9.00;99.90
32612;DHT22;19030;49.478;8.986;2023-01-08T11:37:50;9.10;99.90
32612;DHT22;19030;49.478;8.986;2023-01-08T11:39:53;9.30;99.90
32612;DHT22;19030;49.478;8.986;2023-01-08T11:42:08;9.40;99.90
32612;DHT22;19030;49.478;8.986;2023-01-08T11:53:34;10.00;99.90
32612;DHT22;19030;49.478;8.986;2023-01-08T11:55:48;10.00;99.90
32612;DHT22;19030;49.478;8.986;2023-01-08T11:58:11;9.90;99.90
32612;DHT22;19030;49.478;8.986;2023-01-08T12:05:00;10.20;99.90
32612;DHT22;19030;49.478;8.986;2023-01-08T12:07:21;10.40;99.90
32612;DHT22;19030;49.478;8.986;2023-01-08T12:09:42;10.70;99.90
32612;DHT22;19030;49.478;8.986;2023-01-08T12:19:02;11.30;99.90
32612;DHT22;19030;49.478;8.986;2023-01-08T12:23:42;11.60;99.90
32612;DHT22;19030;49.478;8.986;2023-01-08T12:28:21;11.30;99.90
32612;DHT22;19030;49.478;8.986;2023-01-08T12:33:00;10.90;99.90
32612;DHT22;19030;49.478;8.986;2023-01-08T12:35:08;10.80;99.90
32612;DHT22;19030;49.478;8.986;2023-01-08T12:37:16;10.80;99.90
32612;DHT22;19030;49.478;8.986;2023-01-08T12:39:21;10.70;99.90
32612;DHT22;19030;49.478;8.986;2023-01-08T12:41:23;10.70;99.90
32612;DHT22;19030;49.478;8.986;2023-01-08T12:43:29;10.70;99.90
32612;DHT22;19030;49.478;8.986;2023-01-08T12:45:44;10.70;99.90
32612;DHT22;19030;49.478;8.986;2023-01-08T12:47:48;10.70;99.90
32612;DHT22;19030;49.478;8.986;2023-01-08T12:50:18;10.60;99.90
32612;DHT22;19030;49.478;8.986;2023-01-08T12:52:42;10.60;99.90
32612;DHT22;19030;49.478;8.986;2023-01-08T12:57:08;10.40;99.90
32612;DHT22;19030;49.478;8.986;2023-01-08T12:59:16;10.30;99.90
32612;DHT22;19030;49.478;8.986;2023-01-08T13:03:25;10.20;99.90
32612;DHT22;19030;49.478;8.986;2023-01-08T13:07:31;10.20;99.90
32612;DHT22;19030;49.478;8.986;2023-01-08T13:09:35;10.10;99.90
32612;DHT22;19030;49.478;8.986;2023-01-08T13:11:42;10.10;99.90
32612;DHT22;19030;49.478;8.986;2023-01-08T13:14:14;10.20;99.90
32612;DHT22;19030;49.478;8.986;2023-01-08T13:16:21;10.20;99.90
32612;DHT22;19030;49.478;8.986;2023-01-08T13:18:21;10.30;99.90
32612;DHT22;19030;49.478;8.986;2023-01-08T13:20:26;10.30;99.90
32612;DHT22;19030;49.478;8.986;2023-01-08T13:22:31;10.30;99.90
32612;DHT22;19030;49.478;8.986;2023-01-08T13:24:37;10.20;99.90
32612;DHT22;19030;49.478;8.986;2023-01-08T13:26:38;10.20;99.90
32612;DHT22;19030;49.478;8.986;2023-01-08T13:28:43;10.20;99.90
32612;DHT22;19030;49.478;8.986;2023-01-08T13:30:44;10.30;99.90
32612;DHT22;19030;49.478;8.986;2023-01-08T13:32:48;10.20;99.90
32612;DHT22;19030;49.478;8.986;2023-01-08T13:35:15;10.30;99.90
32612;DHT22;19030;49.478;8.986;2023-01-08T13:37:24;10.30;99.90
32612;DHT22;19030;49.478;8.986;2023-01-08T13:39:35;10.10;99.90
32612;DHT22;19030;49.478;8.986;2023-01-08T13:41:55;10.00;99.90
32612;DHT22;19030;49.478;8.986;2023-01-08T13:44:16;9.90;99.90
32612;DHT22;19030;49.478;8.986;2023-01-08T13:46:19;9.80;99.90
32612;DHT22;19030;49.478;8.986;2023-01-08T13:49:15;9.70;99.90
32612;DHT22;19030;49.478;8.986;2023-01-08T13:50:45;9.70;99.90
32612;DHT22;19030;49.478;8.986;2023-01-08T13:52:47;9.70;99.90
32612;DHT22;19030;49.478;8.986;2023-01-08T13:54:49;9.60;99.90
32612;DHT22;19030;49.478;8.986;2023-01-08T13:56:52;9.60;99.90
32612;DHT22;19030;49.478;8.986;2023-01-08T13:58:54;9.60;99.90
32612;DHT22;19030;49.478;8.986;2023-01-08T14:00:55;9.60;99.90
32612;DHT22;19030;49.478;8.986;2023-01-08T14:02:57;9.70;99.90
32612;DHT22;19030;49.478;8.986;2023-01-08T14:04:59;9.80;99.90